LFMP Airport Information

Runway Information
Runway 13 Length 4150 ft width 66 ft
Elevation 143 ft Threshold 404 ft Heading 127
Runway 31 Length 4150 ft Width 66 ft
Elevation 131 ft Threshold 1158 ft Heading 307
Runway 15 Length 8202 ft width 148 ft
Elevation 130 ft Threshold 0 ft Heading 148
Runway 33 Length 8202 ft Width 148 ft
Elevation 135 ft Threshold 557 ft Heading 328
Airport Frequencies
Type APP Name PERPIGNAN Frequency 120.75 MHZ
Type ATIS Name ATIS Frequency 127.875 MHZ
Type TWR Name PERPIGNAN Frequency 121.9 MHZ
Airport Navaids
Type VOR-DME Name Perpignan Frequency 116250 KHZ
Airport Weather Information & NOTAM
ADDS - METARS form results

(1855 UTC 22 September 2018)
Data provider http://aviationweather.gov/metar/data/
 
METAR text: LFMP 221830Z AUTO 32010KT 9999 NCD 27/14 Q1021 NOSIG
Conditions at: LFMP (PERPIGNAN/RIVESA, FR) observed 1830 UTC 22 September 2018
Temperature: 27.0°C (81°F)
Dewpoint: 14.0°C (57°F) [RH = 45%]
Pressure (altimeter): 30.15 inches Hg (1021.0 mb)
Winds: from the NW (320 degrees) at 12 MPH (10 knots; 5.1 m/s)
Visibility: 6 or more miles (10+ km)
Ceiling: at least 12,000 feet AGL
Clouds: sky clear below 12,000 feet AGL
Weather: no significant weather observed at this time

METAR text: LFMP 221800Z AUTO 32010KT 9999 NCD 27/14 Q1021 NOSIG
Conditions at: LFMP (PERPIGNAN/RIVESA, FR) observed 1800 UTC 22 September 2018
Temperature: 27.0°C (81°F)
Dewpoint: 14.0°C (57°F) [RH = 45%]
Pressure (altimeter): 30.15 inches Hg (1021.0 mb)
Winds: from the NW (320 degrees) at 12 MPH (10 knots; 5.1 m/s)
Visibility: 6 or more miles (10+ km)
Ceiling: at least 12,000 feet AGL
Clouds: sky clear below 12,000 feet AGL
Weather: no significant weather observed at this time

Forecast for: LFMP (PERPIGNAN/RIVESA, FR)
Text: TAF LFMP 221400Z 2215/2315 12010KT CAVOK
Forecast period: 1500 UTC 22 September 2018 to 1500 UTC 23 September 2018
Forecast type: FROM: standard forecast or significant change
Winds: from the ESE (120 degrees) at 12 MPH (10 knots; 5.1 m/s)
Visibility: 6 or more miles 10+ km)
Ceiling: unknown
Clouds: missing
Weather: NSW  (no significant weather)
Text: BECMG 2215/2217 31010KT
Forecast period: 1500 UTC 22 September 2018 to 1500 UTC 23 September 2018
Forecast type: BECOMING: Conditions expected to become as follows by 1700 UTC 22 September 2018
Winds: from the NW (310 degrees) at 12 MPH (10 knots; 5.1 m/s)
Visibility: 6 or more miles 10+ km)
Ceiling: unknown
Clouds: missing
Weather: NSW  (no significant weather)